createdAt,value
2019-06-07T00:00:37.452Z,95.6
2019-06-07T00:01:21.050Z,95.4
2019-06-07T00:02:16.602Z,95.5
2019-06-07T00:03:30.207Z,95.6
2019-06-07T00:04:16.685Z,95.1
2019-06-07T00:05:20.120Z,95.2
2019-06-07T00:06:25.141Z,95.6
2019-06-07T00:07:21.912Z,95.3
2019-06-07T00:08:28.788Z,94.9
2019-06-07T00:09:22.720Z,95.2
2019-06-07T00:10:36.347Z,95.2
2019-06-07T00:11:20.720Z,95.6
2019-06-07T00:12:21.722Z,95.4
2019-06-07T00:13:20.340Z,95.3
2019-06-07T00:14:21.011Z,95.2
2019-06-07T00:15:28.885Z,94.6
2019-06-07T00:16:23.099Z,94.7
2019-06-07T00:17:20.303Z,94.8
2019-06-07T00:18:25.631Z,94.5
2019-06-07T00:19:19.125Z,94.5
2019-06-07T00:20:23.565Z,94.5
2019-06-07T00:21:20.504Z,94.4
2019-06-07T00:22:32.750Z,94.4
2019-06-07T00:23:22.954Z,94.5
2019-06-07T00:24:21.695Z,94.3
2019-06-07T00:25:24.375Z,94.7
2019-06-07T00:26:21.204Z,94.7
2019-06-07T00:27:22.425Z,94.7
2019-06-07T00:28:19.820Z,95.0
2019-06-07T00:29:21.160Z,95.1
2019-06-07T00:30:40.444Z,94.9
2019-06-07T00:31:24.436Z,94.7
2019-06-07T00:32:22.140Z,94.7
2019-06-07T00:33:23.960Z,94.7
2019-06-07T00:34:22.114Z,94.7
2019-06-07T00:35:22.119Z,94.5
2019-06-07T00:36:20.496Z,94.6
2019-06-07T00:37:23.398Z,94.7
2019-06-07T00:38:21.495Z,94.6
2019-06-07T00:39:25.068Z,94.5
2019-06-07T00:40:31.691Z,94.5
2019-06-07T00:41:22.169Z,94.4
2019-06-07T00:42:21.026Z,94.5
2019-06-07T00:43:25.406Z,94.6
2019-06-07T00:44:23.026Z,94.7
2019-06-07T00:45:23.907Z,94.8
2019-06-07T00:46:20.962Z,94.7
2019-06-07T00:47:23.679Z,94.6
2019-06-07T00:48:32.253Z,94.7
2019-06-07T00:49:38.055Z,94.8
2019-06-07T00:50:23.912Z,95.2
2019-06-07T00:51:20.992Z,95.3
2019-06-07T00:53:29.705Z,95.3
2019-06-07T00:54:21.835Z,95.2
2019-06-07T00:55:22.251Z,95.1
2019-06-07T00:56:21.708Z,95.1
2019-06-07T00:57:19.899Z,95.2
2019-06-07T00:58:24.201Z,95.2
2019-06-07T00:59:23.871Z,95.2
2019-06-07T01:00:23.517Z,95.3
2019-06-07T01:01:22.292Z,95.3
2019-06-07T01:02:25.504Z,95.4
2019-06-07T01:03:22.088Z,95.2
2019-06-07T01:04:22.866Z,95.0
2019-06-07T01:05:25.997Z,95.0
2019-06-07T01:06:21.766Z,94.8
2019-06-07T01:07:19.974Z,94.8
2019-06-07T01:08:22.606Z,94.8
2019-06-07T01:09:19.919Z,94.7
2019-06-07T01:10:51.289Z,94.7
2019-06-07T01:11:22.049Z,94.6
2019-06-07T01:12:21.597Z,94.7
2019-06-07T01:13:21.972Z,94.8
2019-06-07T01:14:22.554Z,94.8
2019-06-07T01:15:22.237Z,94.8
2019-06-07T01:16:21.626Z,94.8
2019-06-07T01:17:40.755Z,94.9
2019-06-07T01:18:38.116Z,94.8
2019-06-07T01:19:16.486Z,94.8
2019-06-07T01:20:19.286Z,94.8
2019-06-07T01:21:24.640Z,94.8
2019-06-07T01:22:20.723Z,94.8
2019-06-07T01:24:04.183Z,94.8
2019-06-07T01:24:17.722Z,94.8
2019-06-07T01:25:22.334Z,94.9
2019-06-07T01:26:22.329Z,95.1
2019-06-07T01:27:20.322Z,95.1
2019-06-07T01:28:24.262Z,95.0
2019-06-07T01:29:20.093Z,95.0
2019-06-07T01:30:21.127Z,95.1
2019-06-07T01:31:22.245Z,95.0
2019-06-07T01:32:19.357Z,95.0
2019-06-07T01:33:18.464Z,95.0
2019-06-07T01:34:18.230Z,95.1
2019-06-07T01:35:20.517Z,95.2
2019-06-07T01:36:19.980Z,95.1
2019-06-07T01:37:19.427Z,95.1
2019-06-07T01:38:21.841Z,95.2
2019-06-07T01:39:18.861Z,95.1
2019-06-07T01:40:20.808Z,95.0
2019-06-07T01:41:23.353Z,95.0
2019-06-07T01:42:21.735Z,94.8
2019-06-07T01:43:19.059Z,95.2
2019-06-07T01:44:23.919Z,95.2
2019-06-07T01:45:19.497Z,95.2
2019-06-07T01:46:18.256Z,95.2
2019-06-07T01:47:20.500Z,95.1
2019-06-07T01:48:22.825Z,95.2
2019-06-07T01:49:17.231Z,95.1
2019-06-07T01:50:19.413Z,95.1
2019-06-07T01:51:20.047Z,95.1
2019-06-07T01:52:16.761Z,95.2
2019-06-07T01:53:23.742Z,95.0
2019-06-07T01:54:57.710Z,94.9
2019-06-07T01:55:21.842Z,94.9
2019-06-07T01:56:20.113Z,95.0
2019-06-07T01:57:43.402Z,95.0
2019-06-07T01:58:17.190Z,95.0
2019-06-07T01:59:17.931Z,94.8
2019-06-07T02:00:17.565Z,94.8
2019-06-07T02:01:21.184Z,95.2
2019-06-07T02:02:17.851Z,95.7
2019-06-07T02:03:21.528Z,95.8
2019-06-07T02:04:24.843Z,95.8
2019-06-07T02:05:21.406Z,95.8
2019-06-07T02:06:18.556Z,95.8
2019-06-07T02:07:23.841Z,95.9
2019-06-07T02:08:16.341Z,96.0
2019-06-07T02:09:16.607Z,96.0
2019-06-07T02:10:16.884Z,96.0
2019-06-07T02:11:20.965Z,96.1
2019-06-07T02:12:35.713Z,96.2
2019-06-07T02:13:16.306Z,96.2
2019-06-07T02:14:16.599Z,96.2
2019-06-07T02:15:16.909Z,96.3
2019-06-07T02:16:17.193Z,96.3
2019-06-07T02:17:16.466Z,96.3
2019-06-07T02:18:16.798Z,96.5
2019-06-07T02:19:17.075Z,96.5
2019-06-07T02:20:16.350Z,96.4
2019-06-07T02:21:16.398Z,96.4
2019-06-07T02:22:16.672Z,96.4
2019-06-07T02:23:16.932Z,96.5
2019-06-07T02:24:17.213Z,96.5
2019-06-07T02:25:38.159Z,96.3
2019-06-07T02:26:16.842Z,96.2
2019-06-07T02:27:17.108Z,96.3
2019-06-07T02:28:36.371Z,96.4
2019-06-07T02:29:16.683Z,96.3
2019-06-07T02:30:40.007Z,96.3
2019-06-07T02:31:16.336Z,96.3
2019-06-07T02:32:16.622Z,96.2
2019-06-07T02:33:16.928Z,96.2
2019-06-07T02:34:17.204Z,96.2
2019-06-07T02:35:16.512Z,96.1
2019-06-07T02:36:16.786Z,96.2
2019-06-07T02:37:17.065Z,96.2
2019-06-07T02:38:16.339Z,96.4
2019-06-07T02:39:16.615Z,96.3
2019-06-07T02:40:16.897Z,96.2
2019-06-07T02:41:16.961Z,96.2
2019-06-07T02:42:17.225Z,96.1
2019-06-07T02:43:16.512Z,95.9
2019-06-07T02:44:16.783Z,95.8
2019-06-07T02:45:17.064Z,95.8
2019-06-07T02:46:34.581Z,95.8
2019-06-07T02:47:16.318Z,95.8
2019-06-07T02:48:16.591Z,95.8
2019-06-07T02:49:16.869Z,95.9
2019-06-07T02:50:17.225Z,96.0
2019-06-07T02:51:16.269Z,96.0
2019-06-07T02:52:16.571Z,96.0
2019-06-07T02:53:16.930Z,96.0
2019-06-07T02:54:17.215Z,95.8
2019-06-07T02:55:16.512Z,95.9
2019-06-07T02:56:43.839Z,95.9
2019-06-07T02:57:17.147Z,96.0
2019-06-07T02:58:16.427Z,95.8
2019-06-07T02:59:16.798Z,95.8
2019-06-07T03:00:45.434Z,96.0
2019-06-07T03:01:16.352Z,96.0
2019-06-07T03:02:16.652Z,96.0
2019-06-07T03:03:16.927Z,96.0
2019-06-07T03:04:17.348Z,96.0
2019-06-07T03:05:16.630Z,96.0
2019-06-07T03:06:17.296Z,96.1
2019-06-07T03:07:16.572Z,96.2
2019-06-07T03:08:16.868Z,96.2
2019-06-07T03:09:17.142Z,96.0
2019-06-07T03:10:16.425Z,96.0
2019-06-07T03:11:16.477Z,96.0
2019-06-07T03:12:16.755Z,96.0
2019-06-07T03:13:17.020Z,96.0
2019-06-07T03:14:16.297Z,96.0
2019-06-07T03:15:35.106Z,96.0
2019-06-07T03:16:17.059Z,96.0
2019-06-07T03:17:16.333Z,95.9
2019-06-07T03:18:16.598Z,96.0
2019-06-07T03:19:16.877Z,96.2
2019-06-07T03:20:17.149Z,96.1
2019-06-07T03:21:17.207Z,96.2
2019-06-07T03:22:16.472Z,96.1
2019-06-07T03:23:16.742Z,96.0
2019-06-07T03:24:17.010Z,96.1
2019-06-07T03:25:16.276Z,96.2
2019-06-07T03:26:16.546Z,96.3
2019-06-07T03:27:35.792Z,96.4
2019-06-07T03:28:16.547Z,96.5
2019-06-07T03:29:16.812Z,96.3
2019-06-07T03:30:39.678Z,96.2
2019-06-07T03:31:16.526Z,96.0
2019-06-07T03:32:16.810Z,95.5
2019-06-07T03:33:17.097Z,95.7
2019-06-07T03:34:16.375Z,95.7
2019-06-07T03:35:16.648Z,95.7
2019-06-07T03:36:25.963Z,95.6
2019-06-07T03:37:16.396Z,95.4
2019-06-07T03:38:16.670Z,95.1
2019-06-07T03:39:16.941Z,94.8
2019-06-07T03:40:17.218Z,94.5
2019-06-07T03:41:16.461Z,94.7
2019-06-07T03:42:16.780Z,95.0
2019-06-07T03:43:17.060Z,95.1
2019-06-07T03:44:16.330Z,95.2
2019-06-07T03:45:16.605Z,95.2
2019-06-07T03:46:16.883Z,95.2
2019-06-07T03:47:17.147Z,95.3
2019-06-07T03:48:16.431Z,95.3
2019-06-07T03:49:16.703Z,95.2
2019-06-07T03:50:16.977Z,95.1
2019-06-07T03:51:25.426Z,94.9
2019-06-07T03:52:17.197Z,94.9
2019-06-07T03:53:16.462Z,94.8
2019-06-07T03:54:16.718Z,94.9
2019-06-07T03:55:16.989Z,95.0
2019-06-07T03:56:17.265Z,94.9
2019-06-07T03:57:16.535Z,94.7
2019-06-07T03:58:32.494Z,94.8
2019-06-07T03:59:16.989Z,94.8
2019-06-07T04:00:16.260Z,94.3
2019-06-07T04:01:16.348Z,94.2
2019-06-07T04:02:16.623Z,94.3
2019-06-07T04:03:35.896Z,94.2
2019-06-07T04:04:16.363Z,93.9
2019-06-07T04:05:16.631Z,94.1
2019-06-07T04:06:16.897Z,94.7
2019-06-07T04:07:17.169Z,94.7
2019-06-07T04:08:16.435Z,94.6
2019-06-07T04:09:16.698Z,94.5
2019-06-07T04:10:16.991Z,94.3
2019-06-07T04:11:17.045Z,94.0
2019-06-07T04:12:16.307Z,93.8
2019-06-07T04:13:16.576Z,93.7
2019-06-07T04:14:16.851Z,94.0
2019-06-07T04:15:17.140Z,93.6
2019-06-07T04:16:16.409Z,93.8
2019-06-07T04:17:16.681Z,94.0
2019-06-07T04:18:16.958Z,93.8
2019-06-07T04:19:17.229Z,93.4
2019-06-07T04:20:16.506Z,93.7
2019-06-07T04:21:16.578Z,93.7
2019-06-07T04:22:16.856Z,93.7
2019-06-07T04:23:30.924Z,93.5
2019-06-07T04:24:16.538Z,93.5
2019-06-07T04:25:16.865Z,93.5
2019-06-07T04:26:17.143Z,93.3
2019-06-07T04:27:16.420Z,93.2
2019-06-07T04:28:16.681Z,93.1
2019-06-07T04:29:36.839Z,93.6
2019-06-07T04:30:16.322Z,94.0
2019-06-07T04:31:16.340Z,93.6
2019-06-07T04:32:16.620Z,93.3
2019-06-07T04:33:16.882Z,93.0
2019-06-07T04:34:17.030Z,93.0
2019-06-07T04:35:16.344Z,92.8
2019-06-07T04:36:16.679Z,92.2
2019-06-07T04:37:16.961Z,92.4
2019-06-07T04:38:17.235Z,92.5
2019-06-07T04:39:16.516Z,92.6
2019-06-07T04:40:16.843Z,92.3
2019-06-07T04:41:16.849Z,92.8
2019-06-07T04:42:17.121Z,92.7
2019-06-07T04:43:16.403Z,92.5
2019-06-07T04:44:16.680Z,92.5
2019-06-07T04:45:36.058Z,92.6
2019-06-07T04:46:16.516Z,93.0
2019-06-07T04:47:16.826Z,92.2
2019-06-07T04:48:17.093Z,92.0
2019-06-07T04:49:16.351Z,92.1
2019-06-07T04:50:16.682Z,92.4
2019-06-07T04:51:16.789Z,92.6
2019-06-07T04:52:17.132Z,92.9
2019-06-07T04:53:16.392Z,92.2
2019-06-07T04:54:16.669Z,92.2
2019-06-07T04:55:16.937Z,92.3
2019-06-07T04:56:17.455Z,92.1
2019-06-07T04:57:16.725Z,92.7
2019-06-07T04:58:17.004Z,92.3
2019-06-07T05:00:03.960Z,92.3
2019-06-07T05:00:46.540Z,92.8
2019-06-07T05:01:29.535Z,91.8
2019-06-07T05:02:16.893Z,92.0
2019-06-07T05:03:17.155Z,91.8
2019-06-07T05:04:16.429Z,91.8
2019-06-07T05:05:16.708Z,91.8
2019-06-07T05:06:16.997Z,91.2
2019-06-07T05:07:16.271Z,91.6
2019-06-07T05:08:29.905Z,92.2
2019-06-07T05:09:16.642Z,92.6
2019-06-07T05:10:16.958Z,92.1
2019-06-07T05:11:17.007Z,91.5
2019-06-07T05:12:16.271Z,91.7
2019-06-07T05:13:16.533Z,91.4
2019-06-07T05:14:16.807Z,91.7
2019-06-07T05:15:17.085Z,91.7
2019-06-07T05:16:16.359Z,91.5
2019-06-07T05:17:16.637Z,90.2
2019-06-07T05:18:16.902Z,89.8
2019-06-07T05:19:17.167Z,89.2
2019-06-07T05:20:16.449Z,88.9
2019-06-07T05:21:16.483Z,88.7
2019-06-07T05:22:16.751Z,88.5
2019-06-07T05:24:02.279Z,87.4
2019-06-07T05:24:16.371Z,87.6
2019-06-07T05:25:16.649Z,87.7
2019-06-07T05:26:16.907Z,86.9
2019-06-07T05:27:17.183Z,87.6
2019-06-07T05:28:16.451Z,87.0
2019-06-07T05:29:16.720Z,87.6
2019-06-07T05:30:58.350Z,86.8
2019-06-07T05:31:16.387Z,87.7
2019-06-07T05:32:16.765Z,88.2
2019-06-07T05:33:17.040Z,88.1
2019-06-07T05:34:16.385Z,87.2
2019-06-07T05:35:16.861Z,87.2
2019-06-07T05:36:17.231Z,87.0
2019-06-07T05:37:16.509Z,86.5
2019-06-07T05:38:16.791Z,86.6
2019-06-07T05:39:17.054Z,86.0
2019-06-07T05:40:16.334Z,85.3
2019-06-07T05:41:16.408Z,86.2
2019-06-07T05:42:16.697Z,86.2
2019-06-07T05:43:17.030Z,86.4
2019-06-07T05:44:16.316Z,86.2
2019-06-07T05:45:16.590Z,86.5
2019-06-07T05:46:16.897Z,86.9
2019-06-07T05:47:17.190Z,86.8
2019-06-07T05:48:16.462Z,86.5
2019-06-07T05:49:16.739Z,86.5
2019-06-07T05:50:41.269Z,86.9
2019-06-07T05:51:16.386Z,86.7
2019-06-07T05:52:16.652Z,87.2
2019-06-07T05:53:16.952Z,87.2
2019-06-07T05:54:17.218Z,87.4
2019-06-07T05:55:16.498Z,88.2
2019-06-07T05:56:17.776Z,87.8
2019-06-07T05:57:17.178Z,87.8
2019-06-07T05:58:16.454Z,87.5
2019-06-07T05:59:16.733Z,87.1
2019-06-07T06:00:17.087Z,87.3
2019-06-07T06:01:43.491Z,88.2
2019-06-07T06:02:24.806Z,87.8
2019-06-07T06:03:17.291Z,87.4
2019-06-07T06:04:16.559Z,88.3
2019-06-07T06:05:34.098Z,88.2
2019-06-07T06:06:16.649Z,88.7
2019-06-07T06:07:16.922Z,88.1
2019-06-07T06:08:17.215Z,87.7
2019-06-07T06:09:16.496Z,87.4
2019-06-07T06:10:16.769Z,87.3
2019-06-07T06:11:16.835Z,86.9
2019-06-07T06:12:35.061Z,85.3
2019-06-07T06:13:16.480Z,85.2
2019-06-07T06:14:16.793Z,84.7
2019-06-07T06:15:17.093Z,83.8
2019-06-07T06:16:16.374Z,84.9
2019-06-07T06:17:16.671Z,83.8
2019-06-07T06:18:16.949Z,83.8
2019-06-07T06:19:17.220Z,83.3
2019-06-07T06:20:16.584Z,82.8
2019-06-07T06:21:20.547Z,82.5
2019-06-07T06:22:16.900Z,83.2
2019-06-07T06:23:17.184Z,83.0
2019-06-07T06:24:16.460Z,82.8
2019-06-07T06:25:32.188Z,82.8
2019-06-07T06:26:16.879Z,83.2
2019-06-07T06:28:03.049Z,83.3
2019-06-07T06:28:16.527Z,82.9
2019-06-07T06:29:16.799Z,82.5
2019-06-07T06:30:17.092Z,81.4
2019-06-07T06:31:17.152Z,79.1
2019-06-07T06:32:41.577Z,79.2
2019-06-07T06:33:34.317Z,82.0
2019-06-07T06:34:17.096Z,80.2
2019-06-07T06:35:16.406Z,80.2
2019-06-07T06:36:16.734Z,79.5
2019-06-07T06:37:17.021Z,79.4
2019-06-07T06:38:16.288Z,79.6
2019-06-07T06:39:16.562Z,79.6
2019-06-07T06:40:16.857Z,79.8
2019-06-07T06:41:17.253Z,80.2
2019-06-07T06:42:16.517Z,80.5
2019-06-07T06:43:16.803Z,78.3
2019-06-07T06:44:17.117Z,78.2
2019-06-07T06:45:16.389Z,77.7
2019-06-07T06:46:38.467Z,76.5
2019-06-07T06:47:17.030Z,78.8
2019-06-07T06:48:16.305Z,78.1
2019-06-07T06:49:16.581Z,76.6
2019-06-07T06:50:16.864Z,74.9
2019-06-07T06:51:16.943Z,73.8
2019-06-07T06:52:17.212Z,75.1
2019-06-07T06:53:16.482Z,75.7
2019-06-07T06:54:40.505Z,76.7
2019-06-07T06:55:17.131Z,77.4
2019-06-07T06:56:16.415Z,78.2
2019-06-07T06:57:20.503Z,75.3
2019-06-07T06:58:16.873Z,74.8
2019-06-07T06:59:38.477Z,73.7
2019-06-07T07:00:17.091Z,73.0
2019-06-07T07:01:17.182Z,74.2
2019-06-07T07:02:16.473Z,75.3
2019-06-07T07:03:56.378Z,74.3
2019-06-07T07:04:17.094Z,76.0
2019-06-07T07:05:16.390Z,75.0
2019-06-07T07:06:26.955Z,75.3
2019-06-07T07:07:16.395Z,75.3
2019-06-07T07:08:16.653Z,74.2
2019-06-07T07:09:16.916Z,73.8
2019-06-07T07:10:17.185Z,73.0
2019-06-07T07:11:17.255Z,72.7
2019-06-07T07:12:16.535Z,74.0
2019-06-07T07:13:16.805Z,74.3
2019-06-07T07:14:17.075Z,74.3
2019-06-07T07:15:16.341Z,73.6
2019-06-07T07:16:16.612Z,73.9
2019-06-07T07:17:16.918Z,73.8
2019-06-07T07:18:17.188Z,74.7
2019-06-07T07:19:16.464Z,73.8
2019-06-07T07:20:16.815Z,74.5
2019-06-07T07:21:16.792Z,75.7
2019-06-07T07:22:17.071Z,75.9
2019-06-07T07:23:17.543Z,76.3
2019-06-07T07:24:22.473Z,75.8
2019-06-07T07:25:16.860Z,75.7
2019-06-07T07:26:17.126Z,74.5
2019-06-07T07:27:16.401Z,74.4
2019-06-07T07:28:16.669Z,73.2
2019-06-07T07:29:16.969Z,72.0
2019-06-07T07:30:36.418Z,72.3
2019-06-07T07:31:16.345Z,73.5
2019-06-07T07:32:16.611Z,72.7
2019-06-07T07:33:17.015Z,72.3
2019-06-07T07:34:35.176Z,70.8
2019-06-07T07:35:16.913Z,69.2
2019-06-07T07:36:37.919Z,69.1
2019-06-07T07:37:16.552Z,69.2
2019-06-07T07:38:16.822Z,70.0
2019-06-07T07:39:17.438Z,70.6
2019-06-07T07:40:56.721Z,70.6
2019-06-07T07:41:17.086Z,69.5
2019-06-07T07:42:21.888Z,69.3
2019-06-07T07:43:17.214Z,70.5
2019-06-07T07:44:16.489Z,70.5
2019-06-07T07:45:16.770Z,68.8
2019-06-07T07:46:30.071Z,68.0
2019-06-07T07:47:16.490Z,68.7
2019-06-07T07:48:18.926Z,68.9
2019-06-07T07:49:17.255Z,68.0
2019-06-07T07:50:16.555Z,67.5
2019-06-07T07:51:16.603Z,67.2
2019-06-07T07:52:16.871Z,68.5
2019-06-07T07:53:17.146Z,68.0
2019-06-07T07:54:16.475Z,67.5
2019-06-07T07:55:16.886Z,66.4
2019-06-07T07:56:17.181Z,67.3
2019-06-07T07:57:16.458Z,66.8
2019-06-07T07:58:16.744Z,66.4
2019-06-07T07:59:17.026Z,66.7
2019-06-07T08:00:49.235Z,65.7
2019-06-07T08:01:16.689Z,65.8
2019-06-07T08:02:16.951Z,64.4
2019-06-07T08:03:17.230Z,67.0
2019-06-07T08:04:16.495Z,67.3
2019-06-07T08:05:33.731Z,67.5
2019-06-07T08:06:16.491Z,66.6
2019-06-07T08:07:16.766Z,67.2
2019-06-07T08:08:17.052Z,66.8
2019-06-07T08:09:16.317Z,66.7
2019-06-07T08:10:16.591Z,67.2
2019-06-07T08:11:16.644Z,64.6
2019-06-07T08:12:16.907Z,63.9
2019-06-07T08:13:26.794Z,63.2
2019-06-07T08:14:16.690Z,63.5
2019-06-07T08:15:16.969Z,63.8
2019-06-07T08:16:19.088Z,63.9
2019-06-07T08:17:16.496Z,62.5
2019-06-07T08:18:16.774Z,62.7
2019-06-07T08:19:17.047Z,62.1
2019-06-07T08:20:16.336Z,63.5
2019-06-07T08:21:27.091Z,64.3
2019-06-07T08:22:16.502Z,64.0
2019-06-07T08:23:16.780Z,61.5
2019-06-07T08:24:17.064Z,61.5
2019-06-07T08:25:16.393Z,62.6
2019-06-07T08:26:16.652Z,62.0
2019-06-07T08:27:26.877Z,62.2
2019-06-07T08:28:16.282Z,62.5
2019-06-07T08:29:16.566Z,62.8
2019-06-07T08:31:17.223Z,62.4
2019-06-07T08:32:16.560Z,62.2
2019-06-07T08:33:26.963Z,61.8
2019-06-07T08:34:16.383Z,64.2
2019-06-07T08:36:03.519Z,63.4
2019-06-07T08:36:38.528Z,61.9
2019-06-07T08:37:16.432Z,62.7
2019-06-07T08:38:44.929Z,62.6
2019-06-07T08:39:17.070Z,62.4
2019-06-07T08:40:16.381Z,62.1
2019-06-07T08:41:16.445Z,63.6
2019-06-07T08:42:36.413Z,61.8
2019-06-07T08:43:21.328Z,63.6
2019-06-07T08:44:25.663Z,62.1
2019-06-07T08:45:17.016Z,61.1
2019-06-07T08:46:16.295Z,62.6
2019-06-07T08:47:21.255Z,61.3
2019-06-07T08:48:30.073Z,62.3
2019-06-07T08:49:16.571Z,62.3
2019-06-07T08:50:16.847Z,60.3
2019-06-07T08:51:16.913Z,60.6
2019-06-07T08:52:17.226Z,60.9
2019-06-07T08:53:16.495Z,60.9
2019-06-07T08:54:23.516Z,60.7
2019-06-07T08:55:16.885Z,62.3
2019-06-07T08:56:17.168Z,62.8
2019-06-07T08:57:22.063Z,63.0
2019-06-07T08:58:16.379Z,61.4
2019-06-07T08:59:16.661Z,63.1
2019-06-07T09:00:43.479Z,63.3
2019-06-07T09:01:16.318Z,63.9
2019-06-07T09:02:25.720Z,63.2
2019-06-07T09:03:18.023Z,62.2
2019-06-07T09:04:16.293Z,60.4
2019-06-07T09:05:16.570Z,61.8
2019-06-07T09:07:01.566Z,61.9
2019-06-07T09:07:21.940Z,60.8
2019-06-07T09:08:30.244Z,61.2
2019-06-07T09:09:17.016Z,62.1
2019-06-07T09:10:16.300Z,62.5
2019-06-07T09:11:16.369Z,61.8
2019-06-07T09:12:16.636Z,59.5
2019-06-07T09:13:16.908Z,60.5
2019-06-07T09:14:17.180Z,61.2
2019-06-07T09:15:24.363Z,60.9
2019-06-07T09:16:16.788Z,59.5
2019-06-07T09:17:17.066Z,59.8
2019-06-07T09:18:41.786Z,59.8
2019-06-07T09:19:16.625Z,58.4
2019-06-07T09:20:36.631Z,58.3
2019-06-07T09:21:16.434Z,59.2
2019-06-07T09:22:16.698Z,57.6
2019-06-07T09:23:18.147Z,57.2
2019-06-07T09:24:16.447Z,57.1
2019-06-07T09:25:21.752Z,57.3
2019-06-07T09:26:19.214Z,57.5
2019-06-07T09:27:16.582Z,57.2
2019-06-07T09:28:20.861Z,57.0
2019-06-07T09:29:16.265Z,57.0
2019-06-07T09:30:19.149Z,57.2
2019-06-07T09:31:16.605Z,57.8
2019-06-07T09:32:18.827Z,57.3
2019-06-07T09:33:17.140Z,56.0
2019-06-07T09:34:16.417Z,58.1
2019-06-07T09:35:18.052Z,57.5
2019-06-07T09:36:16.399Z,57.4
2019-06-07T09:38:04.091Z,57.3
2019-06-07T09:38:25.954Z,57.0
2019-06-07T09:39:16.600Z,56.7
2019-06-07T09:40:27.699Z,58.4
2019-06-07T09:41:16.972Z,57.7
2019-06-07T09:42:17.268Z,57.0
2019-06-07T09:44:00.488Z,56.8
2019-06-07T09:44:26.507Z,56.6
2019-06-07T09:45:16.949Z,56.4
2019-06-07T09:46:17.264Z,57.3
2019-06-07T09:47:32.132Z,57.2
2019-06-07T09:49:08.859Z,58.1
2019-06-07T09:49:32.430Z,56.6
2019-06-07T09:50:16.300Z,56.4
2019-06-07T09:51:20.642Z,56.1
2019-06-07T09:52:17.043Z,56.3
2019-06-07T09:53:23.586Z,56.7
2019-06-07T09:55:03.675Z,54.8
2019-06-07T09:55:25.326Z,55.7
2019-06-07T09:56:16.642Z,55.1
2019-06-07T09:57:18.174Z,56.2
2019-06-07T09:58:50.898Z,54.2
2019-06-07T09:59:16.771Z,54.2
2019-06-07T10:00:40.449Z,55.4
2019-06-07T10:01:16.450Z,55.8
2019-06-07T10:02:16.725Z,54.8
2019-06-07T10:03:22.818Z,53.8
2019-06-07T10:04:31.441Z,54.7
2019-06-07T10:05:16.964Z,54.8
2019-06-07T10:06:17.274Z,55.2
2019-06-07T10:07:31.528Z,52.8
2019-06-07T10:09:26.086Z,53.9
2019-06-07T10:10:35.430Z,53.1
2019-06-07T10:11:16.863Z,52.5
2019-06-07T10:12:17.141Z,52.3
2019-06-07T10:13:16.415Z,54.7
2019-06-07T10:14:16.713Z,52.4
2019-06-07T10:15:16.999Z,53.5
2019-06-07T10:16:16.296Z,52.1
2019-06-07T10:17:16.577Z,53.6
2019-06-07T10:18:16.872Z,52.5
2019-06-07T10:19:17.156Z,53.0
2019-06-07T10:20:16.437Z,53.4
2019-06-07T10:21:16.497Z,54.1
2019-06-07T10:22:16.769Z,54.2
2019-06-07T10:23:17.041Z,53.4
2019-06-07T10:24:16.308Z,52.8
2019-06-07T10:25:16.592Z,52.8
2019-06-07T10:26:16.867Z,51.4
2019-06-07T10:27:17.147Z,51.1
2019-06-07T10:28:16.413Z,53.2
2019-06-07T10:29:16.681Z,51.5
2019-06-07T10:30:17.035Z,52.1
2019-06-07T10:31:17.028Z,53.3
2019-06-07T10:32:16.296Z,52.4
2019-06-07T10:33:16.575Z,54.1
2019-06-07T10:34:16.837Z,52.3
2019-06-07T10:35:17.134Z,51.8
2019-06-07T10:36:16.511Z,52.2
2019-06-07T10:37:16.816Z,52.1
2019-06-07T10:38:17.080Z,53.3
2019-06-07T10:39:16.346Z,54.0
2019-06-07T10:40:16.625Z,53.2
2019-06-07T10:41:16.701Z,54.0
2019-06-07T10:42:17.006Z,52.2
2019-06-07T10:43:16.321Z,52.2
2019-06-07T10:44:16.615Z,52.5
2019-06-07T10:45:16.882Z,53.0
2019-06-07T10:46:17.158Z,52.0
2019-06-07T10:47:16.451Z,52.6
2019-06-07T10:48:16.728Z,53.1
2019-06-07T10:49:17.012Z,52.9
2019-06-07T10:50:16.294Z,53.5
2019-06-07T10:51:16.390Z,53.1
2019-06-07T10:52:16.659Z,52.8
2019-06-07T10:53:16.927Z,52.8
2019-06-07T10:54:29.755Z,52.3
2019-06-07T10:55:16.838Z,52.0
2019-06-07T10:56:17.113Z,50.9
2019-06-07T10:57:16.541Z,52.9
2019-06-07T10:58:16.818Z,53.0
2019-06-07T10:59:17.085Z,52.5
2019-06-07T11:00:16.357Z,51.9
2019-06-07T11:01:16.439Z,50.8
2019-06-07T11:02:16.749Z,52.6
2019-06-07T11:03:17.029Z,51.7
2019-06-07T11:04:16.303Z,49.8
2019-06-07T11:05:16.594Z,49.2
2019-06-07T11:06:16.871Z,48.8
2019-06-07T11:07:17.175Z,48.5
2019-06-07T11:08:16.444Z,49.0
2019-06-07T11:09:16.708Z,49.7
2019-06-07T11:10:20.343Z,49.9
2019-06-07T11:11:17.039Z,50.0
2019-06-07T11:12:16.302Z,48.6
2019-06-07T11:13:16.584Z,48.2
2019-06-07T11:14:16.854Z,47.8
2019-06-07T11:15:17.131Z,48.6
2019-06-07T11:16:16.399Z,49.2
2019-06-07T11:17:18.001Z,48.1
2019-06-07T11:18:16.264Z,48.5
2019-06-07T11:19:19.693Z,48.4
2019-06-07T11:20:18.792Z,48.0
2019-06-07T11:21:18.690Z,49.2
2019-06-07T11:22:18.267Z,48.5
2019-06-07T11:23:16.834Z,48.5
2019-06-07T11:24:24.510Z,48.5
2019-06-07T11:25:17.023Z,48.3
2019-06-07T11:26:16.290Z,49.1
2019-06-07T11:27:16.680Z,49.8
2019-06-07T11:28:16.944Z,49.4
2019-06-07T11:29:18.683Z,49.9
2019-06-07T11:30:16.397Z,48.6
2019-06-07T11:31:16.470Z,48.8
2019-06-07T11:32:16.767Z,48.7
2019-06-07T11:33:17.047Z,49.1
2019-06-07T11:34:16.325Z,49.4
2019-06-07T11:35:16.593Z,49.9
2019-06-07T11:36:16.870Z,49.5
2019-06-07T11:37:17.162Z,48.9
2019-06-07T11:38:16.432Z,49.0
2019-06-07T11:39:16.701Z,50.1
2019-06-07T11:40:34.768Z,49.5
2019-06-07T11:41:17.953Z,49.6
2019-06-07T11:42:20.265Z,49.0
2019-06-07T11:43:16.546Z,50.1
2019-06-07T11:44:17.328Z,49.3
2019-06-07T11:45:16.601Z,49.6
2019-06-07T11:46:17.359Z,49.9
2019-06-07T11:47:16.642Z,49.8
2019-06-07T11:48:17.684Z,50.4
2019-06-07T11:49:22.067Z,50.8
2019-06-07T11:50:17.711Z,50.3
2019-06-07T11:51:16.552Z,50.5
2019-06-07T11:52:17.925Z,50.8
2019-06-07T11:53:17.222Z,50.8
2019-06-07T11:54:20.628Z,50.7
2019-06-07T11:55:17.008Z,50.1
2019-06-07T11:56:16.292Z,50.9
2019-06-07T11:57:17.495Z,50.5
2019-06-07T11:58:21.808Z,50.6
2019-06-07T11:59:17.558Z,50.0
2019-06-07T12:00:18.603Z,50.2
2019-06-07T12:01:18.775Z,49.9
2019-06-07T12:02:17.763Z,50.3
2019-06-07T12:03:18.201Z,51.0
2019-06-07T12:04:34.026Z,50.9
2019-06-07T12:05:20.362Z,51.1
2019-06-07T12:06:18.204Z,51.0
2019-06-07T12:07:19.928Z,51.1
2019-06-07T12:08:16.296Z,52.0
2019-06-07T12:09:18.337Z,51.1
2019-06-07T12:10:23.059Z,51.4
2019-06-07T12:11:17.049Z,51.0
2019-06-07T12:12:16.701Z,51.4
2019-06-07T12:13:18.970Z,50.8
2019-06-07T12:14:16.944Z,51.2
2019-06-07T12:15:18.880Z,51.1
2019-06-07T12:16:17.530Z,50.5
2019-06-07T12:17:17.775Z,51.0
2019-06-07T12:18:17.465Z,52.4
2019-06-07T12:19:17.804Z,51.2
2019-06-07T12:20:20.838Z,50.6
2019-06-07T12:21:18.193Z,50.6
2019-06-07T12:22:17.957Z,50.8
2019-06-07T12:23:18.248Z,51.6
2019-06-07T12:24:16.532Z,50.7
2019-06-07T12:25:24.923Z,51.0
2019-06-07T12:26:16.755Z,51.2
2019-06-07T12:27:17.034Z,50.5
2019-06-07T12:28:16.932Z,50.0
2019-06-07T12:29:17.312Z,50.9
2019-06-07T12:30:27.642Z,51.5
2019-06-07T12:31:17.260Z,50.5
2019-06-07T12:32:17.606Z,50.0
2019-06-07T12:33:17.852Z,49.6
2019-06-07T12:34:17.578Z,49.3
2019-06-07T12:35:17.994Z,49.8
2019-06-07T12:36:17.807Z,49.3
2019-06-07T12:37:22.726Z,49.2
2019-06-07T12:38:20.536Z,50.0
2019-06-07T12:39:18.148Z,49.0
2019-06-07T12:40:32.005Z,49.5
2019-06-07T12:41:16.448Z,49.5
2019-06-07T12:42:16.738Z,49.5
2019-06-07T12:43:17.018Z,48.5
2019-06-07T12:44:16.694Z,48.5
2019-06-07T12:45:39.962Z,49.0
2019-06-07T12:46:26.676Z,49.0
2019-06-07T12:47:16.960Z,48.4
2019-06-07T12:48:24.453Z,48.8
2019-06-07T12:49:17.165Z,48.6
2019-06-07T12:50:17.568Z,49.1
2019-06-07T12:51:17.303Z,48.1
2019-06-07T12:52:20.949Z,47.8
2019-06-07T12:53:18.987Z,48.5
2019-06-07T12:54:17.695Z,48.6
2019-06-07T12:55:20.332Z,48.5
2019-06-07T12:56:17.878Z,48.0
2019-06-07T12:57:18.081Z,48.1
2019-06-07T12:58:16.351Z,47.2
2019-06-07T12:59:18.001Z,47.6
2019-06-07T13:00:16.326Z,46.2
2019-06-07T13:01:16.352Z,46.5
2019-06-07T13:02:16.613Z,45.7
2019-06-07T13:03:18.475Z,45.8
2019-06-07T13:04:16.784Z,46.2
2019-06-07T13:05:18.346Z,46.4
2019-06-07T13:06:17.864Z,47.8
2019-06-07T13:07:19.602Z,46.6
2019-06-07T13:08:17.701Z,47.1
2019-06-07T13:09:17.826Z,46.6
2019-06-07T13:10:18.089Z,47.5
2019-06-07T13:11:29.410Z,47.8
2019-06-07T13:12:17.637Z,46.5
2019-06-07T13:13:20.650Z,47.0
2019-06-07T13:14:16.328Z,46.8
2019-06-07T13:15:20.484Z,48.0
2019-06-07T13:16:18.432Z,47.5
2019-06-07T13:17:18.182Z,47.2
2019-06-07T13:18:20.833Z,47.5
2019-06-07T13:19:16.495Z,47.2
2019-06-07T13:20:18.328Z,47.1
2019-06-07T13:21:18.420Z,47.3